createdAt,value
2023-06-21T00:02:04.611Z,53.80
2023-06-21T00:04:32.433Z,53.51
2023-06-21T00:07:02.175Z,53.80
2023-06-21T00:09:29.929Z,53.69
2023-06-21T00:11:57.656Z,53.70
2023-06-21T00:14:25.360Z,53.96
2023-06-21T00:16:53.080Z,54.06
2023-06-21T00:19:20.823Z,54.06
2023-06-21T00:21:48.549Z,54.28
2023-06-21T00:24:17.742Z,54.70
2023-06-21T00:26:45.445Z,54.38
2023-06-21T00:29:13.188Z,54.76
2023-06-21T00:31:40.925Z,54.95
2023-06-21T00:34:08.983Z,55.04
2023-06-21T00:36:43.103Z,54.99
2023-06-21T00:39:11.671Z,55.07
2023-06-21T00:41:40.727Z,55.21
2023-06-21T00:44:09.399Z,55.39
2023-06-21T00:46:37.174Z,55.29
2023-06-21T00:49:05.987Z,55.08
2023-06-21T00:51:34.449Z,55.86
2023-06-21T00:54:02.483Z,55.54
2023-06-21T00:56:30.296Z,55.71
2023-06-21T00:58:59.396Z,55.81
2023-06-21T01:01:27.706Z,55.79
2023-06-21T01:03:55.512Z,56.03
2023-06-21T01:06:26.333Z,55.71
2023-06-21T01:08:57.425Z,55.66
2023-06-21T01:11:26.707Z,55.69
2023-06-21T01:14:04.352Z,55.67
2023-06-21T01:16:35.417Z,55.57
2023-06-21T01:19:03.202Z,55.57
2023-06-21T01:21:31.034Z,55.86
2023-06-21T01:24:15.706Z,56.06
2023-06-21T01:26:54.810Z,56.10
2023-06-21T01:29:24.061Z,55.92
2023-06-21T01:31:54.483Z,56.47
2023-06-21T01:34:22.769Z,56.37
2023-06-21T01:36:50.548Z,56.05
2023-06-21T01:39:18.676Z,56.36
2023-06-21T01:41:47.248Z,56.18
2023-06-21T01:44:17.307Z,56.05
2023-06-21T01:46:46.520Z,55.83
2023-06-21T01:49:14.405Z,56.08
2023-06-21T01:51:42.562Z,56.36
2023-06-21T01:54:10.435Z,56.59
2023-06-21T01:56:39.371Z,55.98
2023-06-21T01:59:07.123Z,56.45
2023-06-21T02:01:34.974Z,56.84
2023-06-21T02:04:04.205Z,56.73
2023-06-21T02:06:32.625Z,56.93
2023-06-21T02:09:01.373Z,56.74
2023-06-21T02:11:29.198Z,57.06
2023-06-21T02:13:56.991Z,57.10
2023-06-21T02:16:27.764Z,57.01
2023-06-21T02:18:55.488Z,56.88
2023-06-21T02:21:24.857Z,56.95
2023-06-21T02:23:52.602Z,56.88
2023-06-21T02:26:20.330Z,57.48
2023-06-21T02:28:48.163Z,57.19
2023-06-21T02:31:16.004Z,57.24
2023-06-21T02:33:45.913Z,57.16
2023-06-21T02:36:14.855Z,56.94
2023-06-21T02:38:43.966Z,57.27
2023-06-21T02:41:11.727Z,57.32
2023-06-21T02:43:39.430Z,57.22
2023-06-21T02:46:07.229Z,57.54
2023-06-21T02:48:35.027Z,56.98
2023-06-21T02:51:02.756Z,57.39
2023-06-21T02:53:30.589Z,57.29
2023-06-21T02:55:59.988Z,57.23
2023-06-21T02:58:27.769Z,57.40
2023-06-21T03:00:55.542Z,57.82
2023-06-21T03:03:23.448Z,57.42
2023-06-21T03:05:51.360Z,57.19
2023-06-21T03:08:19.135Z,57.18
2023-06-21T03:10:46.840Z,57.26
2023-06-21T03:13:15.929Z,57.07
2023-06-21T03:15:43.784Z,57.09
2023-06-21T03:18:11.501Z,57.03
2023-06-21T03:20:39.295Z,57.60
2023-06-21T03:23:07.038Z,57.71
2023-06-21T03:25:34.763Z,57.71
2023-06-21T03:28:02.529Z,57.22
2023-06-21T03:30:31.835Z,57.25
2023-06-21T03:32:59.870Z,57.37
2023-06-21T03:35:30.232Z,57.28
2023-06-21T03:37:57.983Z,57.81
2023-06-21T03:40:26.154Z,57.86
2023-06-21T03:42:54.553Z,57.69
2023-06-21T03:45:22.328Z,57.89
2023-06-21T03:47:51.512Z,58.13
2023-06-21T03:50:19.279Z,57.61
2023-06-21T03:52:47.120Z,57.69
2023-06-21T03:55:14.916Z,57.96
2023-06-21T03:57:42.672Z,58.16
2023-06-21T04:00:12.279Z,57.84
2023-06-21T04:02:40.301Z,58.26
2023-06-21T04:05:10.748Z,58.48
2023-06-21T04:07:39.351Z,59.16
2023-06-21T04:10:07.849Z,59.30
2023-06-21T04:12:35.766Z,59.16
2023-06-21T04:15:04.800Z,58.76
2023-06-21T04:17:32.555Z,58.87
2023-06-21T04:20:00.327Z,58.80
2023-06-21T04:22:30.873Z,58.61
2023-06-21T04:24:58.618Z,59.13
2023-06-21T04:27:26.362Z,58.60
2023-06-21T04:29:54.900Z,58.64
2023-06-21T04:32:22.767Z,59.07
2023-06-21T04:34:50.538Z,59.15
2023-06-21T04:37:20.256Z,59.11
2023-06-21T04:39:49.606Z,58.77
2023-06-21T04:42:21.347Z,58.95
2023-06-21T04:44:50.386Z,58.89
2023-06-21T04:47:18.317Z,59.24
2023-06-21T04:49:46.065Z,59.07
2023-06-21T04:52:13.889Z,59.14
2023-06-21T04:54:41.630Z,59.35
2023-06-21T04:57:13.673Z,59.61
2023-06-21T04:59:41.540Z,59.17
2023-06-21T05:02:09.356Z,59.23
2023-06-21T05:04:37.145Z,59.08
2023-06-21T05:07:06.545Z,59.13
2023-06-21T05:09:34.298Z,59.03
2023-06-21T05:12:02.004Z,59.17
2023-06-21T05:14:31.091Z,59.21
2023-06-21T05:16:59.040Z,59.37
2023-06-21T05:19:26.750Z,59.25
2023-06-21T05:21:54.581Z,59.65
2023-06-21T05:24:22.505Z,59.54
2023-06-21T05:26:50.247Z,59.85
2023-06-21T05:29:18.116Z,59.42
2023-06-21T05:31:47.241Z,59.23
2023-06-21T05:34:14.961Z,59.28
2023-06-21T05:36:42.732Z,59.28
2023-06-21T05:39:10.527Z,58.99
2023-06-21T05:41:38.343Z,59.36
2023-06-21T05:44:06.229Z,59.34
2023-06-21T05:46:34.082Z,59.13
2023-06-21T05:49:03.532Z,59.45
2023-06-21T05:51:31.379Z,59.57
2023-06-21T05:53:59.432Z,59.13
2023-06-21T05:56:28.223Z,59.05
2023-06-21T05:58:55.968Z,58.71
2023-06-21T06:01:25.530Z,59.13
2023-06-21T06:03:53.682Z,58.82
2023-06-21T06:06:22.835Z,58.74
2023-06-21T06:08:50.731Z,58.66
2023-06-21T06:11:18.445Z,59.19
2023-06-21T06:13:46.165Z,59.05
2023-06-21T06:16:14.490Z,58.59
2023-06-21T06:18:42.333Z,58.84
2023-06-21T06:21:10.094Z,58.43
2023-06-21T06:23:39.290Z,58.81
2023-06-21T06:26:08.802Z,58.94
2023-06-21T06:28:39.048Z,58.59
2023-06-21T06:31:06.794Z,58.46
2023-06-21T06:33:34.590Z,58.44
2023-06-21T06:36:02.332Z,58.73
2023-06-21T06:38:30.079Z,58.50
2023-06-21T06:40:59.285Z,58.62
2023-06-21T06:43:27.072Z,58.13
2023-06-21T06:45:54.855Z,58.13
2023-06-21T06:48:22.733Z,58.11
2023-06-21T06:50:50.596Z,58.22
2023-06-21T06:53:18.443Z,58.15
2023-06-21T06:55:46.139Z,57.65
2023-06-21T06:58:15.247Z,57.84
2023-06-21T07:00:43.172Z,57.84
2023-06-21T07:03:11.015Z,58.07
2023-06-21T07:05:43.318Z,57.48
2023-06-21T07:08:11.374Z,57.87
2023-06-21T07:10:39.110Z,57.62
2023-06-21T07:13:07.576Z,57.61
2023-06-21T07:15:36.747Z,57.53
2023-06-21T07:18:04.879Z,57.28
2023-06-21T07:20:33.450Z,57.23
2023-06-21T07:23:01.777Z,57.29
2023-06-21T07:25:29.680Z,57.05
2023-06-21T07:27:57.565Z,57.31
2023-06-21T07:30:25.510Z,57.11
2023-06-21T07:32:54.785Z,57.07
2023-06-21T07:35:22.538Z,56.83
2023-06-21T07:37:50.280Z,56.96
2023-06-21T07:40:18.019Z,56.85
2023-06-21T07:42:45.983Z,56.94
2023-06-21T07:45:13.936Z,56.78
2023-06-21T07:47:42.632Z,56.65
2023-06-21T07:50:22.025Z,56.20
2023-06-21T07:52:50.973Z,56.23
2023-06-21T07:55:18.916Z,56.50
2023-06-21T07:57:46.802Z,56.19
2023-06-21T08:00:15.127Z,56.09
2023-06-21T08:02:45.295Z,56.12
2023-06-21T08:05:16.031Z,56.33
2023-06-21T08:07:43.971Z,55.85
2023-06-21T08:10:11.854Z,55.69
2023-06-21T08:12:39.671Z,55.79
2023-06-21T08:15:08.453Z,55.73
2023-06-21T08:17:36.221Z,55.97
2023-06-21T08:20:05.028Z,55.72
2023-06-21T08:22:34.314Z,55.71
2023-06-21T08:25:02.046Z,55.87
2023-06-21T08:27:29.885Z,55.52
2023-06-21T08:29:57.641Z,55.68
2023-06-21T08:32:25.885Z,55.37
2023-06-21T08:34:55.158Z,55.27
2023-06-21T08:37:26.330Z,55.15
2023-06-21T08:39:56.661Z,55.30
2023-06-21T08:42:24.563Z,55.06
2023-06-21T08:44:52.402Z,55.17
2023-06-21T08:47:20.190Z,55.12
2023-06-21T08:49:48.074Z,54.79
2023-06-21T08:52:19.304Z,55.07
2023-06-21T08:54:48.611Z,54.97
2023-06-21T08:57:19.996Z,54.89
2023-06-21T08:59:50.211Z,55.02
2023-06-21T09:02:22.394Z,54.62
2023-06-21T09:04:50.971Z,54.73
2023-06-21T09:07:18.885Z,55.01
2023-06-21T09:09:46.777Z,54.56
2023-06-21T09:12:16.943Z,54.18
2023-06-21T09:14:44.712Z,54.29
2023-06-21T09:17:12.564Z,54.33
2023-06-21T09:19:41.258Z,54.13
2023-06-21T09:22:09.105Z,53.91
2023-06-21T09:24:36.843Z,54.02
2023-06-21T09:27:05.167Z,53.95
2023-06-21T09:29:34.310Z,53.90
2023-06-21T09:32:03.124Z,53.74
2023-06-21T09:34:30.953Z,53.56
2023-06-21T09:36:58.816Z,53.47
2023-06-21T09:39:28.746Z,53.66
2023-06-21T09:41:56.488Z,53.65
2023-06-21T09:44:24.644Z,53.45
2023-06-21T09:46:58.986Z,53.67
2023-06-21T09:49:28.039Z,53.71
2023-06-21T09:51:55.851Z,53.49
2023-06-21T09:54:23.711Z,53.44
2023-06-21T09:56:51.445Z,53.80
2023-06-21T09:59:20.490Z,53.08
2023-06-21T10:01:51.037Z,53.37
2023-06-21T10:04:20.195Z,53.27
2023-06-21T10:06:51.578Z,52.74
2023-06-21T10:09:20.023Z,52.42
2023-06-21T10:11:50.183Z,52.48
2023-06-21T10:14:21.970Z,52.48
2023-06-21T10:16:51.686Z,52.37
2023-06-21T10:19:22.544Z,52.85
2023-06-21T10:21:52.817Z,52.37
2023-06-21T10:24:21.378Z,52.38
2023-06-21T10:26:50.566Z,52.35
2023-06-21T10:29:18.362Z,52.01
2023-06-21T10:31:47.614Z,51.83
2023-06-21T10:34:17.709Z,51.79
2023-06-21T10:36:49.607Z,51.70
2023-06-21T10:39:17.437Z,51.57
2023-06-21T10:41:45.267Z,51.69
2023-06-21T10:44:13.180Z,51.52
2023-06-21T10:46:42.730Z,51.12
2023-06-21T10:49:11.001Z,51.22
2023-06-21T10:51:41.560Z,51.30
2023-06-21T10:54:10.869Z,51.41
2023-06-21T10:56:38.762Z,51.04
2023-06-21T10:59:06.543Z,50.68
2023-06-21T11:01:34.343Z,50.64
2023-06-21T11:04:02.118Z,50.57
2023-06-21T11:06:35.343Z,50.10
2023-06-21T11:09:09.283Z,50.28
2023-06-21T11:11:38.721Z,50.49
2023-06-21T11:14:06.427Z,50.55
2023-06-21T11:16:35.465Z,50.45
2023-06-21T11:19:05.395Z,51.02
2023-06-21T11:21:41.458Z,51.18
2023-06-21T11:24:09.877Z,51.43
2023-06-21T11:27:01.282Z,51.29
2023-06-21T11:29:29.943Z,51.43
2023-06-21T11:32:09.372Z,51.25
2023-06-21T11:34:37.127Z,51.23
2023-06-21T11:37:36.103Z,51.10
2023-06-21T11:40:05.348Z,50.89
2023-06-21T11:42:38.148Z,50.80
2023-06-21T11:45:22.303Z,51.09
2023-06-21T11:48:04.211Z,51.16
2023-06-21T11:50:35.933Z,51.24
2023-06-21T11:53:18.071Z,51.19
2023-06-21T11:55:46.613Z,51.37
2023-06-21T11:58:15.756Z,51.30
2023-06-21T12:00:45.583Z,51.36
2023-06-21T12:03:13.656Z,51.16
2023-06-21T12:05:45.906Z,51.47
2023-06-21T12:08:13.680Z,51.15
2023-06-21T12:10:41.649Z,51.01
2023-06-21T12:13:12.556Z,50.67
2023-06-21T12:15:46.424Z,51.29
2023-06-21T12:18:14.292Z,51.33
2023-06-21T12:20:42.681Z,51.49
2023-06-21T12:23:10.540Z,51.14
2023-06-21T12:25:48.104Z,50.95
2023-06-21T12:28:15.894Z,50.83
2023-06-21T12:30:52.078Z,50.66
2023-06-21T12:33:19.823Z,50.27
2023-06-21T12:35:47.558Z,50.44
2023-06-21T12:38:15.815Z,50.16
2023-06-21T12:40:58.692Z,50.31
2023-06-21T12:43:39.166Z,50.34
2023-06-21T12:46:08.717Z,50.44
2023-06-21T12:48:37.085Z,50.49
2023-06-21T12:51:05.094Z,50.32
2023-06-21T12:53:33.626Z,50.05
2023-06-21T12:56:05.566Z,49.52
2023-06-21T12:58:33.663Z,49.33
2023-06-21T13:01:02.985Z,49.20
2023-06-21T13:03:32.181Z,49.06
2023-06-21T13:06:00.151Z,48.72
2023-06-21T13:08:28.083Z,48.72
2023-06-21T13:10:56.434Z,49.36
2023-06-21T13:13:24.151Z,49.23
2023-06-21T13:15:52.079Z,48.77
2023-06-21T13:18:20.261Z,49.34
2023-06-21T13:20:49.460Z,49.43
2023-06-21T13:23:17.268Z,49.32
2023-06-21T13:25:45.025Z,48.44
2023-06-21T13:28:12.751Z,48.97
2023-06-21T13:30:40.469Z,48.71
2023-06-21T13:33:08.440Z,49.18
2023-06-21T13:35:36.250Z,48.82
2023-06-21T13:38:05.444Z,49.07
2023-06-21T13:40:33.188Z,49.22
2023-06-21T13:43:00.926Z,48.75
2023-06-21T13:45:28.759Z,48.87
2023-06-21T13:47:57.114Z,48.51
2023-06-21T13:50:25.012Z,48.65
2023-06-21T13:52:52.845Z,48.57
2023-06-21T13:55:22.240Z,48.80
2023-06-21T13:57:53.648Z,49.07
2023-06-21T14:00:21.972Z,49.46
2023-06-21T14:02:53.195Z,49.60
2023-06-21T14:05:23.026Z,49.91
2023-06-21T14:07:51.126Z,50.08
2023-06-21T14:10:18.906Z,49.81
2023-06-21T14:12:47.987Z,49.81
2023-06-21T14:15:15.710Z,50.18
2023-06-21T14:17:44.001Z,49.52
2023-06-21T14:20:12.571Z,49.41
2023-06-21T14:22:40.294Z,48.99
2023-06-21T14:25:09.685Z,48.74
2023-06-21T14:27:37.539Z,49.40
2023-06-21T14:30:07.867Z,48.89
2023-06-21T14:32:35.805Z,48.38
2023-06-21T14:35:03.520Z,47.99
2023-06-21T14:37:31.293Z,47.35
2023-06-21T14:39:59.076Z,46.27
2023-06-21T14:42:27.121Z,45.30
2023-06-21T14:44:54.907Z,43.14
2023-06-21T14:47:24.111Z,41.50
2023-06-21T14:49:53.291Z,40.36
2023-06-21T14:52:21.170Z,39.39
2023-06-21T14:54:50.557Z,38.67
2023-06-21T14:57:18.385Z,38.91
2023-06-21T14:59:46.574Z,38.67
2023-06-21T15:02:14.442Z,39.19
2023-06-21T15:04:43.528Z,39.70
2023-06-21T15:07:15.160Z,39.27
2023-06-21T15:09:42.883Z,39.84
2023-06-21T15:12:13.560Z,40.11
2023-06-21T15:14:41.468Z,41.31
2023-06-21T15:17:09.480Z,42.29
2023-06-21T15:19:37.641Z,43.05
2023-06-21T15:22:07.230Z,44.02
2023-06-21T15:24:34.984Z,43.74
2023-06-21T15:27:02.725Z,44.12
2023-06-21T15:29:30.442Z,43.89
2023-06-21T15:31:58.152Z,44.47
2023-06-21T15:34:25.922Z,44.49
2023-06-21T15:36:53.737Z,44.93
2023-06-21T15:39:22.856Z,44.45
2023-06-21T15:41:51.019Z,44.16
2023-06-21T15:44:18.771Z,45.30
2023-06-21T15:46:47.381Z,44.41
2023-06-21T15:49:16.298Z,45.02
2023-06-21T15:51:44.177Z,45.36
2023-06-21T15:54:11.943Z,44.76
2023-06-21T15:56:41.286Z,44.73
2023-06-21T15:59:09.216Z,44.55
2023-06-21T16:01:37.061Z,43.91
2023-06-21T16:04:05.526Z,43.73
2023-06-21T16:06:33.400Z,42.47
2023-06-21T16:09:01.148Z,42.81
2023-06-21T16:11:28.971Z,41.79
2023-06-21T16:13:58.058Z,41.34
2023-06-21T16:16:25.818Z,40.91
2023-06-21T16:18:55.673Z,42.12
2023-06-21T16:21:23.423Z,42.24
2023-06-21T16:23:51.804Z,42.47
2023-06-21T16:26:21.754Z,43.23
2023-06-21T16:28:50.322Z,43.41
2023-06-21T16:31:19.445Z,43.23
2023-06-21T16:33:47.178Z,44.43
2023-06-21T16:36:14.896Z,44.50
2023-06-21T16:38:42.670Z,44.03
2023-06-21T16:41:10.478Z,43.90
2023-06-21T16:43:38.198Z,44.29
2023-06-21T16:46:06.078Z,44.87
2023-06-21T16:48:35.214Z,44.78
2023-06-21T16:51:02.957Z,44.52
2023-06-21T16:53:31.295Z,44.86
2023-06-21T16:55:59.037Z,44.56
2023-06-21T16:58:26.748Z,44.17
2023-06-21T17:00:54.517Z,44.50
2023-06-21T17:03:22.485Z,44.57
2023-06-21T17:05:51.986Z,44.72
2023-06-21T17:08:19.700Z,44.97
2023-06-21T17:10:47.422Z,45.11
2023-06-21T17:13:15.122Z,44.89
2023-06-21T17:15:43.015Z,44.96
2023-06-21T17:18:12.286Z,45.09
2023-06-21T17:20:40.058Z,45.12
2023-06-21T17:23:09.123Z,44.61
2023-06-21T17:25:37.205Z,44.50
2023-06-21T17:28:05.238Z,44.83
2023-06-21T17:30:33.048Z,44.40
2023-06-21T17:33:00.963Z,44.73
2023-06-21T17:35:29.489Z,44.70
2023-06-21T17:37:57.426Z,44.26
2023-06-21T17:40:26.560Z,44.63
2023-06-21T17:42:54.309Z,44.58
2023-06-21T17:45:22.100Z,44.22
2023-06-21T17:47:50.123Z,44.00
2023-06-21T17:50:18.014Z,44.47
2023-06-21T17:52:45.834Z,44.12
2023-06-21T17:55:13.644Z,44.31
2023-06-21T17:57:43.180Z,44.36
2023-06-21T18:00:11.880Z,44.45
2023-06-21T18:02:39.907Z,44.73
2023-06-21T18:05:13.023Z,44.47
2023-06-21T18:07:40.838Z,44.16
2023-06-21T18:10:09.347Z,44.65
2023-06-21T18:12:37.099Z,44.21
2023-06-21T18:15:07.760Z,44.27
2023-06-21T18:17:38.203Z,44.68
2023-06-21T18:20:07.056Z,44.10
2023-06-21T18:22:43.296Z,44.39
2023-06-21T18:25:11.888Z,44.31
2023-06-21T18:27:39.722Z,44.31
2023-06-21T18:30:10.529Z,44.46
2023-06-21T18:32:39.334Z,44.86
2023-06-21T18:35:09.710Z,44.88
2023-06-21T18:37:38.373Z,45.17
2023-06-21T18:40:07.113Z,45.46
2023-06-21T18:42:34.963Z,45.44
2023-06-21T18:45:02.694Z,45.64
2023-06-21T18:47:31.979Z,45.77
2023-06-21T18:49:59.825Z,45.69
2023-06-21T18:52:28.592Z,45.70
2023-06-21T18:54:56.398Z,45.87
2023-06-21T18:57:24.808Z,46.15
2023-06-21T18:59:52.557Z,46.33
2023-06-21T19:02:20.359Z,46.32
2023-06-21T19:04:51.220Z,46.22
2023-06-21T19:07:19.124Z,46.53
2023-06-21T19:09:46.948Z,46.39
2023-06-21T19:12:14.774Z,46.69
2023-06-21T19:14:43.487Z,47.02
2023-06-21T19:17:11.251Z,46.78
2023-06-21T19:19:39.084Z,47.00
2023-06-21T19:22:09.865Z,46.94
2023-06-21T19:24:37.647Z,47.13
2023-06-21T19:27:06.050Z,47.20
2023-06-21T19:29:33.879Z,47.08
2023-06-21T19:32:01.683Z,47.22
2023-06-21T19:34:29.622Z,47.11
2023-06-21T19:36:57.391Z,47.19
2023-06-21T19:39:26.508Z,47.09
2023-06-21T19:41:54.309Z,47.29
2023-06-21T19:44:22.283Z,47.42
2023-06-21T19:46:50.664Z,47.45
2023-06-21T19:49:19.429Z,47.53
2023-06-21T19:51:47.284Z,47.62
2023-06-21T19:54:19.330Z,47.72
2023-06-21T19:56:48.463Z,47.69
2023-06-21T19:59:16.743Z,47.98
2023-06-21T20:01:44.625Z,48.16
2023-06-21T20:04:12.491Z,48.40
2023-06-21T20:06:40.272Z,48.70
2023-06-21T20:09:08.025Z,48.96
2023-06-21T20:11:35.807Z,48.92
2023-06-21T20:14:05.036Z,48.85
2023-06-21T20:16:32.797Z,48.96
2023-06-21T20:19:01.651Z,49.10
2023-06-21T20:21:29.420Z,49.18
2023-06-21T20:23:57.238Z,49.59
2023-06-21T20:26:24.999Z,49.63
2023-06-21T20:28:52.752Z,49.61
2023-06-21T20:31:21.953Z,49.71
2023-06-21T20:33:49.774Z,49.79
2023-06-21T20:36:23.182Z,49.68
2023-06-21T20:38:51.121Z,50.05
2023-06-21T20:41:19.005Z,50.12
2023-06-21T20:43:46.767Z,50.56
2023-06-21T20:46:16.999Z,50.60
2023-06-21T20:48:46.670Z,50.46
2023-06-21T20:51:14.476Z,50.72
2023-06-21T20:53:44.292Z,50.55
2023-06-21T20:56:13.895Z,50.52
2023-06-21T20:58:41.651Z,50.47
2023-06-21T21:01:15.079Z,50.83
2023-06-21T21:03:43.074Z,51.54
2023-06-21T21:06:12.352Z,51.37
2023-06-21T21:08:40.194Z,51.35
2023-06-21T21:11:10.312Z,51.33
2023-06-21T21:13:39.519Z,51.28
2023-06-21T21:16:07.382Z,51.30
2023-06-21T21:18:35.169Z,51.50
2023-06-21T21:21:06.359Z,51.16
2023-06-21T21:23:35.451Z,51.49
2023-06-21T21:26:04.173Z,51.51
2023-06-21T21:28:32.255Z,51.69
2023-06-21T21:31:00.056Z,52.30
2023-06-21T21:33:27.799Z,51.95
2023-06-21T21:35:55.570Z,52.01
2023-06-21T21:38:24.201Z,51.68
2023-06-21T21:40:53.289Z,51.70
2023-06-21T21:43:21.130Z,52.00
2023-06-21T21:45:49.870Z,51.74
2023-06-21T21:48:17.698Z,52.05
2023-06-21T21:50:46.289Z,51.85
2023-06-21T21:53:14.976Z,51.96
2023-06-21T21:55:42.873Z,51.86
2023-06-21T21:58:14.051Z,51.98
2023-06-21T22:00:41.766Z,52.01
2023-06-21T22:03:09.967Z,52.15
2023-06-21T22:05:37.984Z,52.77
2023-06-21T22:08:06.254Z,52.78
2023-06-21T22:10:39.095Z,52.64
2023-06-21T22:13:11.254Z,52.79
2023-06-21T22:15:50.386Z,52.61
2023-06-21T22:18:24.844Z,52.45
2023-06-21T22:20:53.630Z,52.91
2023-06-21T22:23:21.346Z,52.81
2023-06-21T22:25:49.084Z,53.03
2023-06-21T22:28:16.845Z,53.22
2023-06-21T22:30:46.125Z,53.06
2023-06-21T22:33:13.910Z,53.21
2023-06-21T22:35:42.123Z,53.12
2023-06-21T22:38:09.963Z,53.10
2023-06-21T22:40:37.680Z,53.06
2023-06-21T22:43:05.792Z,52.89
2023-06-21T22:45:34.584Z,53.34
2023-06-21T22:48:08.006Z,53.51
2023-06-21T22:50:35.975Z,53.35
2023-06-21T22:53:05.138Z,53.37
2023-06-21T22:55:32.916Z,53.49
2023-06-21T22:58:01.243Z,53.84
2023-06-21T23:00:29.337Z,53.65
2023-06-21T23:02:57.422Z,53.66
2023-06-21T23:05:28.618Z,53.76
2023-06-21T23:07:56.348Z,53.77
2023-06-21T23:10:24.139Z,53.52
2023-06-21T23:12:51.985Z,54.01
2023-06-21T23:15:20.323Z,53.60
2023-06-21T23:17:48.129Z,53.82
2023-06-21T23:20:16.952Z,53.87
2023-06-21T23:22:47.089Z,53.31
2023-06-21T23:25:14.988Z,53.48
2023-06-21T23:27:43.948Z,53.48
2023-06-21T23:30:34.512Z,53.48
2023-06-21T23:33:00.757Z,53.91
2023-06-21T23:35:28.512Z,53.91
2023-06-21T23:37:58.182Z,54.26
2023-06-21T23:40:26.261Z,54.73
2023-06-21T23:42:55.587Z,54.42
2023-06-21T23:45:23.368Z,54.73
2023-06-21T23:47:51.124Z,54.10
2023-06-21T23:50:19.016Z,54.09
2023-06-21T23:52:46.717Z,53.99
2023-06-21T23:55:18.217Z,54.18
2023-06-21T23:57:45.990Z,54.40
